Time;durP1;ratioP1;P1;durP2;ratioP2;P2;SDS_P1;SDS_P2;PMS_P1;PMS_P2;Temp;Humidity;BMP_temperature;BMP_pressure;BME280_temperature;BME280_humidity;BME280_pressure;Samples;Min_cycle;Max_cycle;Signal;HPM_P1;HPM_P2
2021/07/03 00:01:38;;;;;;;;;;;17.00;95.30;;;;;;5884904;40;20050;-74
2021/07/03 00:05:40;;;;;;;11.57;5.97;;;16.80;94.20;;;;;;5895006;40;20027;-74
2021/07/03 00:09:42;;;;;;;11.65;6.55;;;16.80;95.10;;;;;;5893910;40;20064;-74
2021/07/03 00:13:44;;;;;;;12.70;6.57;;;16.80;95.30;;;;;;5890889;40;20081;-74
2021/07/03 00:17:46;;;;;;;9.30;6.07;;;16.80;95.30;;;;;;5891454;40;20135;-74
2021/07/03 00:21:48;;;;;;;10.32;6.03;;;16.90;95.50;;;;;;5885690;40;20058;-74
2021/07/03 00:25:50;;;;;;;10.32;6.70;;;16.80;95.50;;;;;;5886438;40;20073;-78
2021/07/03 00:29:52;;;;;;;13.93;7.18;;;16.80;95.50;;;;;;5884828;40;20078;-75
2021/07/03 00:33:54;;;;;;;;;;;16.90;95.60;;;;;;5888095;40;20041;-75
2021/07/03 00:37:56;;;;;;;15.67;6.83;;;16.80;94.60;;;;;;5894219;40;20019;-76
2021/07/03 00:41:58;;;;;;;10.43;6.55;;;16.80;95.40;;;;;;5886890;40;20488;-74
2021/07/03 00:46:00;;;;;;;14.50;6.85;;;16.70;95.40;;;;;;5886388;40;20042;-76
2021/07/03 00:50:09;;;;;;;;;;;16.70;95.50;;;;;;5892589;40;20057;-75
2021/07/03 00:54:14;;;;;;;11.15;6.60;;;16.70;94.70;;;;;;5892600;40;19957;-74
2021/07/03 00:58:17;;;;;;;11.07;6.55;;;16.70;95.40;;;;;;5885947;40;20042;-74
2021/07/03 01:02:19;;;;;;;10.13;6.38;;;16.70;95.60;;;;;;5885079;40;20054;-74
2021/07/03 01:06:25;;;;;;;9.82;5.85;;;16.70;95.50;;;;;;5889604;40;20058;-76
2021/07/03 01:10:30;;;;;;;10.40;6.22;;;16.60;95.70;;;;;;5883989;40;20576;-75
2021/07/03 01:14:41;;;;;;;9.98;6.38;;;16.70;95.80;;;;;;5893566;40;20062;-75
2021/07/03 01:18:43;;;;;;;12.43;6.25;;;16.70;95.70;;;;;;5884111;40;20054;-76
2021/07/03 01:22:48;;;;;;;10.90;5.40;;;16.60;95.70;;;;;;5885947;40;20520;-74
2021/07/03 01:26:52;;;;;;;14.68;6.40;;;16.60;95.80;;;;;;5884079;40;20064;-74
2021/07/03 01:30:54;;;;;;;9.82;5.95;;;16.60;95.80;;;;;;5884094;40;20054;-74
2021/07/03 01:34:57;;;;;;;11.63;5.80;;;16.60;95.70;;;;;;5892614;40;20434;-74
2021/07/03 01:39:08;;;;;;;7.80;4.90;;;16.50;95.60;;;;;;5887883;40;20046;-74
2021/07/03 01:43:09;;;;;;;9.20;5.25;;;16.50;95.60;;;;;;5884027;40;20046;-74
2021/07/03 01:47:12;;;;;;;;;;;16.50;95.70;;;;;;5891083;40;20046;-75
2021/07/03 01:51:14;;;;;;;;;;;16.40;94.80;;;;;;5886860;40;19950;-75
2021/07/03 01:55:17;;;;;;;7.82;4.72;;;16.40;94.70;;;;;;5886193;40;20019;-76
2021/07/03 01:59:20;;;;;;;8.88;5.07;;;16.50;95.50;;;;;;5894075;40;20057;-75
2021/07/03 02:03:31;;;;;;;6.28;4.07;;;16.50;95.50;;;;;;5891543;40;20631;-75
2021/07/03 02:07:37;;;;;;;6.60;4.55;;;16.50;95.40;;;;;;5890884;40;20116;-76
2021/07/03 02:11:39;;;;;;;8.05;5.22;;;16.40;95.40;;;;;;5884597;40;20104;-74
2021/07/03 02:15:50;;;;;;;5.85;4.18;;;16.50;95.50;;;;;;5882785;40;20429;-75
2021/07/03 02:20:04;;;;;;;6.13;4.28;;;16.50;95.60;;;;;;5894404;40;20070;-75
2021/07/03 02:24:18;;;;;;;8.40;3.72;;;16.50;95.70;;;;;;5881664;40;20045;-74
2021/07/03 02:28:20;;;;;;;6.80;3.50;;;16.40;95.60;;;;;;5891452;40;20034;-74
2021/07/03 02:32:30;;;;;;;7.07;3.40;;;16.40;95.70;;;;;;5885183;40;20034;-74
2021/07/03 02:36:32;;;;;;;8.05;3.60;;;16.40;95.60;;;;;;5885856;40;20077;-73
2021/07/03 02:40:38;;;;;;;6.80;4.05;;;16.40;95.70;;;;;;5893858;40;20064;-75
2021/07/03 02:44:40;;;;;;;4.60;3.20;;;16.40;95.70;;;;;;5893144;40;20439;-75
2021/07/03 02:48:42;;;;;;;4.53;2.90;;;16.30;95.70;;;;;;5876540;40;20114;-74
2021/07/03 02:52:44;;;;;;;;;;;16.30;95.70;;;;;;5879186;40;20057;-75
2021/07/03 02:56:47;;;;;;;4.88;2.35;;;16.30;95.10;;;;;;5891494;40;19945;-73
2021/07/03 03:00:49;;;;;;;3.63;2.50;;;16.20;95.80;;;;;;5874582;40;20058;-75
2021/07/03 03:04:52;;;;;;;5.15;2.47;;;16.20;95.70;;;;;;5889859;40;20533;-75
2021/07/03 03:08:54;;;;;;;;;;;16.10;95.80;;;;;;5885292;40;20105;-74
2021/07/03 03:12:58;;;;;;;3.40;2.33;;;16.10;95.00;;;;;;5893461;40;19940;-75
2021/07/03 03:17:04;;;;;;;3.90;2.67;;;16.10;95.70;;;;;;5877785;40;20067;-75
2021/07/03 03:21:06;;;;;;;5.80;2.65;;;16.10;95.80;;;;;;5888484;40;20402;-74
2021/07/03 03:25:09;;;;;;;5.90;2.60;;;16.10;95.90;;;;;;5890656;40;20051;-74
2021/07/03 03:29:12;;;;;;;4.88;2.20;;;16.10;95.90;;;;;;5893217;40;20042;-73
2021/07/03 03:33:16;;;;;;;5.55;2.38;;;16.10;96.00;;;;;;5893542;40;20062;-75
2021/07/03 03:37:18;;;;;;;5.20;2.28;;;16.10;96.00;;;;;;5896047;40;20128;-75
2021/07/03 03:41:21;;;;;;;3.80;2.42;;;16.00;96.00;;;;;;5886611;40;20061;-75
2021/07/03 03:45:24;;;;;;;3.60;2.35;;;16.10;96.10;;;;;;5891478;40;20410;-76
2021/07/03 03:49:32;;;;;;;4.13;2.22;;;16.10;96.10;;;;;;5891763;40;20054;-75
2021/07/03 03:53:38;;;;;;;7.65;2.42;;;16.10;96.20;;;;;;5886026;40;20096;-75
2021/07/03 03:57:41;;;;;;;5.25;2.63;;;16.10;96.20;;;;;;5891116;40;20593;-74
2021/07/03 04:01:47;;;;;;;4.57;2.17;;;16.10;96.30;;;;;;5885502;40;20050;-75
2021/07/03 04:05:50;;;;;;;;;;;16.10;96.30;;;;;;5892879;40;20152;-74
2021/07/03 04:09:54;;;;;;;7.28;2.47;;;16.10;95.40;;;;;;5886341;40;20023;-79
2021/07/03 04:13:56;;;;;;;5.55;2.47;;;16.00;96.20;;;;;;5904666;40;20294;-78
2021/07/03 04:17:59;;;;;;;6.13;2.30;;;16.00;96.30;;;;;;5890717;40;20049;-80
2021/07/03 04:22:01;;;;;;;5.88;2.78;;;16.10;96.40;;;;;;5898144;40;20046;-77
2021/07/03 04:26:03;;;;;;;;;;;16.10;96.40;;;;;;5895732;40;20105;-75
2021/07/03 04:30:06;;;;;;;5.65;2.60;;;16.10;95.50;;;;;;5887663;40;20240;-79
2021/07/03 04:34:12;;;;;;;5.78;2.40;;;16.10;96.30;;;;;;5888413;40;20128;-76
2021/07/03 04:38:14;;;;;;;4.03;2.15;;;16.10;96.30;;;;;;5888520;40;20046;-76
2021/07/03 04:42:16;;;;;;;4.75;2.20;;;16.10;96.40;;;;;;5894149;40;20371;-76
2021/07/03 04:46:18;;;;;;;6.53;2.33;;;16.10;96.50;;;;;;5887905;40;20038;-76
2021/07/03 04:50:20;;;;;;;5.95;2.53;;;16.00;96.50;;;;;;5884735;40;20418;-76
2021/07/03 04:54:22;;;;;;;4.53;2.38;;;16.80;96.80;;;;;;5892533;40;20160;-77
2021/07/03 04:58:24;;;;;;;5.05;2.22;;;16.10;96.60;;;;;;5886655;40;20084;-76
2021/07/03 05:02:25;;;;;;;3.53;1.52;;;16.10;96.70;;;;;;5894976;40;20069;-76
2021/07/03 05:06:27;;;;;;;4.10;1.70;;;16.10;96.70;;;;;;5885148;40;20057;-77
2021/07/03 05:10:29;;;;;;;3.58;1.67;;;16.80;96.90;;;;;;5884443;40;20274;-76
2021/07/03 05:14:31;;;;;;;4.70;1.88;;;16.10;96.70;;;;;;5884496;40;20441;-75
2021/07/03 05:18:33;;;;;;;3.47;2.25;;;16.00;96.70;;;;;;5891556;40;20201;-76
2021/07/03 05:22:35;;;;;;;8.00;2.20;;;16.00;96.90;;;;;;5884798;40;20089;-76
2021/07/03 05:26:38;;;;;;;3.65;1.90;;;16.00;96.90;;;;;;5883893;40;20058;-75
2021/07/03 05:30:41;;;;;;;4.95;1.80;;;16.00;97.00;;;;;;5885449;40;20364;-76
2021/07/03 05:34:43;;;;;;;5.70;1.80;;;16.00;97.10;;;;;;5885754;40;20047;-76
2021/07/03 05:38:47;;;;;;;6.90;1.80;;;16.00;97.00;;;;;;5892714;40;20061;-76
2021/07/03 05:42:49;;;;;;;4.03;1.75;;;16.10;97.20;;;;;;5891644;40;20054;-76
2021/07/03 05:46:51;;;;;;;3.35;1.60;;;16.00;97.10;;;;;;5885783;40;20049;-76
2021/07/03 05:50:53;;;;;;;4.00;1.65;;;16.80;97.20;;;;;;5887556;40;20050;-76
2021/07/03 05:54:55;;;;;;;3.13;1.50;;;16.10;96.90;;;;;;5884595;40;20070;-77
2021/07/03 05:58:57;;;;;;;3.45;1.88;;;16.20;97.10;;;;;;5888228;40;20053;-76
2021/07/03 06:02:59;;;;;;;3.03;1.50;;;16.20;97.00;;;;;;5896525;40;20078;-76
2021/07/03 06:07:01;;;;;;;2.95;2.08;;;16.10;96.90;;;;;;5886744;40;20056;-76
2021/07/03 06:11:03;;;;;;;3.10;1.42;;;16.10;97.00;;;;;;5891264;40;20128;-76
2021/07/03 06:15:06;;;;;;;5.05;1.60;;;16.10;97.00;;;;;;5896133;40;20119;-77
2021/07/03 06:19:08;;;;;;;4.10;1.90;;;16.10;97.00;;;;;;5889637;40;20062;-79
2021/07/03 06:23:10;;;;;;;;;;;16.10;97.30;;;;;;5898887;40;20053;-76
2021/07/03 06:27:12;;;;;;;3.38;2.13;;;16.20;96.50;;;;;;5882071;40;20279;-75
2021/07/03 06:31:14;;;;;;;3.53;1.67;;;16.20;97.00;;;;;;5896176;40;20481;-76
2021/07/03 06:35:16;;;;;;;2.85;1.63;;;16.20;97.10;;;;;;5888004;40;20052;-76
2021/07/03 06:39:19;;;;;;;3.35;1.73;;;16.30;97.10;;;;;;5887991;40;20053;-77
2021/07/03 06:43:21;;;;;;;3.35;1.70;;;16.30;97.00;;;;;;5888839;40;20787;-77
2021/07/03 06:47:23;;;;;;;;;;;16.40;97.10;;;;;;5885646;40;20376;-76
2021/07/03 06:51:25;;;;;;;;;;;16.40;96.40;;;;;;5894343;40;20055;-75
2021/07/03 06:55:27;;;;;;;4.80;2.17;;;16.40;96.60;;;;;;5897373;40;19953;-77
2021/07/03 06:59:29;;;;;;;5.30;2.00;;;16.40;97.10;;;;;;5878733;40;20070;-76
2021/07/03 07:03:31;;;;;;;3.22;1.75;;;17.60;97.50;;;;;;5890178;40;20065;-76
2021/07/03 07:07:34;;;;;;;4.15;2.00;;;16.90;97.10;;;;;;5884629;40;20113;-76
2021/07/03 07:11:36;;;;;;;4.55;2.00;;;16.70;97.00;;;;;;5884954;40;20070;-76
2021/07/03 07:15:38;;;;;;;;;;;16.90;96.90;;;;;;5887256;40;20046;-76
2021/07/03 07:19:40;;;;;;;5.07;1.77;;;17.30;96.60;;;;;;5888641;40;20020;-77
2021/07/03 07:23:41;;;;;;;3.88;1.73;;;16.70;97.00;;;;;;5891476;40;20089;-76
2021/07/03 07:27:43;;;;;;;3.92;1.90;;;16.90;97.10;;;;;;5899464;40;20109;-77
2021/07/03 07:31:47;;;;;;;3.05;1.50;;;16.90;97.10;;;;;;5889548;40;20049;-77
2021/07/03 07:35:49;;;;;;;4.75;2.08;;;16.90;97.10;;;;;;5888973;40;20049;-77
2021/07/03 07:39:51;;;;;;;5.78;1.90;;;17.10;97.10;;;;;;5890177;40;20426;-77
2021/07/03 07:43:53;;;;;;;5.22;2.40;;;17.10;97.10;;;;;;5878685;40;20508;-75
2021/07/03 07:47:54;;;;;;;5.10;1.90;;;17.20;97.10;;;;;;5888824;40;20678;-77
2021/07/03 07:51:58;;;;;;;3.00;2.08;;;17.80;97.20;;;;;;5889307;40;20056;-80
2021/07/03 07:56:00;;;;;;;4.38;2.00;;;17.20;97.00;;;;;;5888019;40;20053;-76
2021/07/03 08:00:04;;;;;;;4.03;1.92;;;17.20;97.30;;;;;;5899834;40;20066;-77
2021/07/03 08:04:13;;;;;;;4.32;2.22;;;17.10;97.30;;;;;;5897978;40;20125;-79
2021/07/03 08:08:15;;;;;;;4.22;2.10;;;17.20;97.40;;;;;;5888969;40;21086;-80
2021/07/03 08:12:17;;;;;;;4.63;2.10;;;17.20;97.40;;;;;;5902607;40;20055;-80
2021/07/03 08:16:19;;;;;;;3.45;1.63;;;17.20;97.50;;;;;;5895654;40;20061;-82
2021/07/03 08:20:22;;;;;;;4.40;2.03;;;17.40;97.50;;;;;;5890322;40;20046;-76
2021/07/03 08:24:27;;;;;;;5.78;2.13;;;17.50;97.20;;;;;;5880339;40;20049;-76
2021/07/03 08:28:29;;;;;;;3.63;1.70;;;16.60;97.00;;;;;;5895604;40;20086;-76
2021/07/03 08:32:31;;;;;;;4.50;1.75;;;17.50;97.20;;;;;;5895836;40;20221;-77
2021/07/03 08:36:33;;;;;;;4.00;1.83;;;18.60;97.40;;;;;;5893348;40;20604;-77
2021/07/03 08:40:35;;;;;;;4.63;2.45;;;18.30;97.30;;;;;;5888030;40;20082;-76
2021/07/03 08:44:37;;;;;;;;;;;17.60;97.10;;;;;;5890128;40;20037;-76
2021/07/03 08:48:39;;;;;;;4.97;1.95;;;17.60;96.60;;;;;;5896552;40;19945;-76
2021/07/03 08:52:41;;;;;;;5.55;1.92;;;17.60;97.10;;;;;;5886328;40;20362;-77
2021/07/03 08:56:44;;;;;;;3.75;1.88;;;17.60;97.10;;;;;;5886892;40;20408;-77
2021/07/03 09:00:47;;;;;;;4.30;2.08;;;17.70;97.20;;;;;;5884926;40;20044;-73
2021/07/03 09:04:49;;;;;;;3.95;1.55;;;17.80;97.30;;;;;;5882303;40;20054;-72
2021/07/03 09:08:52;;;;;;;3.33;1.70;;;17.90;97.20;;;;;;5878364;40;20310;-73
2021/07/03 09:12:58;;;;;;;3.10;1.63;;;17.80;97.20;;;;;;5880643;40;20065;-73
2021/07/03 09:17:01;;;;;;;2.30;1.60;;;17.80;97.10;;;;;;5875326;40;20085;-73
2021/07/03 09:21:05;;;;;;;4.55;1.30;;;17.90;97.00;;;;;;5872866;40;20559;-74
2021/07/03 09:25:20;;;;;;;3.53;1.55;;;18.00;97.00;;;;;;5889708;40;20427;-73
2021/07/03 09:29:22;;;;;;;3.75;1.50;;;18.10;96.80;;;;;;5876236;40;20141;-73
2021/07/03 09:33:32;;;;;;;2.78;1.52;;;18.10;96.80;;;;;;5883320;40;20045;-72
2021/07/03 09:37:35;;;;;;;4.40;1.40;;;18.20;96.70;;;;;;5890120;40;20058;-72
2021/07/03 09:41:38;;;;;;;3.22;1.60;;;18.30;96.70;;;;;;5881619;40;20375;-73
2021/07/03 09:45:50;;;;;;;2.42;1.40;;;18.30;96.80;;;;;;5873913;40;20118;-74
2021/07/03 09:50:12;;;;;;;2.40;1.20;;;18.30;96.50;;;;;;5882974;40;20117;-73
2021/07/03 09:54:17;;;;;;;3.50;1.60;;;18.40;96.60;;;;;;5882792;40;20046;-73
2021/07/03 09:58:19;;;;;;;4.15;1.77;;;18.50;96.60;;;;;;5890011;40;20073;-73
2021/07/03 10:02:21;;;;;;;2.78;1.60;;;18.70;96.50;;;;;;5885463;40;20106;-73
2021/07/03 10:06:30;;;;;;;4.85;1.77;;;18.30;96.30;;;;;;5884422;40;20093;-73
2021/07/03 10:10:34;;;;;;;4.80;1.80;;;18.90;96.20;;;;;;5884017;40;20053;-74
2021/07/03 10:14:42;;;;;;;2.58;1.45;;;19.00;96.20;;;;;;5884885;40;20433;-72
2021/07/03 10:18:44;;;;;;;2.35;1.60;;;19.10;96.30;;;;;;5886025;40;20443;-73
2021/07/03 10:22:53;;;;;;;;;;;19.20;96.30;;;;;;5888423;40;20049;-74
2021/07/03 10:26:55;;;;;;;2.67;1.83;;;19.30;96.10;;;;;;5892581;40;20464;-72
2021/07/03 10:31:07;;;;;;;2.78;1.80;;;19.40;95.80;;;;;;5883640;40;20386;-72
2021/07/03 10:35:13;;;;;;;3.55;1.73;;;19.50;95.70;;;;;;5889325;40;20594;-78
2021/07/03 10:39:15;;;;;;;4.38;2.00;;;19.70;95.60;;;;;;5896375;40;20113;-78
2021/07/03 10:44:08;;;;;;;3.25;2.05;;;19.90;95.40;;;;;;5890224;40;20514;-79
2021/07/03 10:49:27;;;;;;;3.63;1.75;;;20.00;95.70;;;;;;5893874;40;20096;-77
2021/07/03 10:54:24;;;;;;;3.95;2.08;;;20.40;95.10;;;;;;5879379;40;20098;-78
2021/07/03 11:19:11;;;;;;;5.43;2.00;;;21.10;93.80;;;;;;5888248;40;20137;-79
2021/07/03 11:23:13;;;;;;;5.45;2.60;;;21.20;93.90;;;;;;5893122;40;20039;-77
2021/07/03 11:27:37;;;;;;;4.43;1.80;;;21.20;94.50;;;;;;5890641;40;20521;-78
2021/07/03 11:31:39;;;;;;;5.63;2.10;;;21.50;94.10;;;;;;5893218;40;20054;-79
2021/07/03 11:35:45;;;;;;;4.75;2.10;;;21.70;93.30;;;;;;5891154;40;21742;-77
2021/07/03 11:39:54;;;;;;;5.22;2.35;;;21.70;93.20;;;;;;5891090;40;20070;-77
2021/07/03 11:44:04;;;;;;;4.55;2.35;;;21.90;92.70;;;;;;5895004;40;20042;-77
2021/07/03 11:48:16;;;;;;;6.85;1.90;;;22.10;92.80;;;;;;5884939;40;20074;-78
2021/07/03 11:52:18;;;;;;;;;;;22.20;92.70;;;;;;5877984;40;20097;-79
2021/07/03 11:56:22;;;;;;;5.72;2.35;;;22.20;93.70;;;;;;5891063;40;19945;-79
2021/07/03 12:00:25;;;;;;;6.88;2.60;;;22.60;93.20;;;;;;5891005;40;20066;-79
2021/07/03 12:04:29;;;;;;;4.82;2.40;;;22.00;92.60;;;;;;5886666;40;20054;-76
2021/07/03 12:08:36;;;;;;;4.72;2.30;;;21.80;92.90;;;;;;5886292;40;20369;-78
2021/07/03 12:12:38;;;;;;;5.85;2.88;;;21.90;93.10;;;;;;5892788;40;20103;-77
2021/07/03 12:16:40;;;;;;;5.13;1.98;;;22.10;92.70;;;;;;5882498;40;20057;-76
2021/07/03 12:20:42;;;;;;;4.75;2.28;;;22.30;92.80;;;;;;5891625;40;20077;-77
2021/07/03 12:24:45;;;;;;;;;;;22.40;92.40;;;;;;5880190;40;20508;-77
2021/07/03 12:29:02;;;;;;;4.65;2.20;;;23.20;93.20;;;;;;5886840;40;20282;-77
2021/07/03 12:33:11;;;;;;;5.32;2.17;;;22.80;92.30;;;;;;5879717;40;20060;-77
2021/07/03 12:37:13;;;;;;;5.07;2.40;;;22.80;91.90;;;;;;5887819;40;20050;-77
2021/07/03 12:41:15;;;;;;;5.65;2.50;;;22.90;91.60;;;;;;5875071;40;20054;-80
2021/07/03 12:45:21;;;;;;;5.40;2.78;;;22.90;91.30;;;;;;5880344;40;20050;-77
2021/07/03 12:49:38;;;;;;;10.10;4.00;;;23.00;91.30;;;;;;5886207;40;20074;-77
2021/07/03 12:53:40;;;;;;;7.10;3.08;;;23.00;91.50;;;;;;5889485;40;20511;-77
2021/07/03 12:57:45;;;;;;;8.40;3.10;;;23.20;91.70;;;;;;5886691;40;20069;-77
2021/07/03 13:01:47;;;;;;;6.47;2.90;;;23.10;91.50;;;;;;5884364;40;20393;-76
2021/07/03 13:06:07;;;;;;;6.40;2.80;;;23.20;91.30;;;;;;5892153;40;20061;-77
2021/07/03 13:10:14;;;;;;;7.85;2.85;;;23.30;91.50;;;;;;5879519;40;20061;-77
2021/07/03 13:14:16;;;;;;;6.72;2.72;;;23.40;91.10;;;;;;5872597;40;20232;-77
2021/07/03 13:18:18;;;;;;;5.43;3.17;;;23.50;91.10;;;;;;5891285;40;20050;-77
2021/07/03 13:22:20;;;;;;;6.57;3.33;;;23.60;90.60;;;;;;5875914;40;20090;-77
2021/07/03 13:26:22;;;;;;;7.55;3.13;;;23.70;90.50;;;;;;5890957;40;20071;-78
2021/07/03 13:30:24;;;;;;;6.10;2.88;;;23.60;90.40;;;;;;5880170;40;20050;-78
2021/07/03 13:34:26;;;;;;;5.10;2.90;;;23.60;90.60;;;;;;5889679;40;20038;-79
2021/07/03 13:38:28;;;;;;;5.68;3.13;;;23.50;90.50;;;;;;5883565;40;20090;-78
2021/07/03 13:42:30;;;;;;;5.72;3.05;;;23.40;90.60;;;;;;5893436;40;20037;-79
2021/07/03 13:46:31;;;;;;;4.93;3.10;;;23.40;90.70;;;;;;5892606;40;20050;-77
2021/07/03 13:50:33;;;;;;;7.15;3.20;;;23.30;90.70;;;;;;5878177;40;20053;-80
2021/07/03 13:54:35;;;;;;;5.47;3.20;;;23.30;91.00;;;;;;5879033;40;20433;-77
2021/07/03 13:58:37;;;;;;;7.68;3.40;;;23.20;90.30;;;;;;5883023;40;20060;-78
2021/07/03 14:02:39;;;;;;;9.15;3.03;;;23.10;91.00;;;;;;5883085;40;20053;-78
2021/07/03 14:06:42;;;;;;;6.18;3.42;;;23.50;90.90;;;;;;5878482;40;20083;-77
2021/07/03 14:10:44;;;;;;;7.72;3.67;;;23.40;91.00;;;;;;5891171;40;20073;-78
2021/07/03 14:14:46;;;;;;;9.40;3.65;;;23.50;90.50;;;;;;5893097;40;20026;-77
2021/07/03 14:18:48;;;;;;;5.25;3.30;;;23.50;90.20;;;;;;5884347;40;20057;-78
2021/07/03 14:22:54;;;;;;;7.28;3.20;;;23.30;90.80;;;;;;5893648;40;20034;-78
2021/07/03 14:26:56;;;;;;;7.03;3.58;;;23.20;90.90;;;;;;5884004;40;20065;-79
2021/07/03 14:30:58;;;;;;;7.60;3.70;;;23.20;90.90;;;;;;5890853;40;20483;-80
2021/07/03 14:34:59;;;;;;;6.15;3.50;;;23.20;90.70;;;;;;5892953;40;20038;-79
2021/07/03 14:39:03;;;;;;;6.93;3.33;;;23.20;90.60;;;;;;5896382;40;20054;-77
2021/07/03 14:43:05;;;;;;;6.90;3.60;;;23.20;91.00;;;;;;5889308;40;20202;-78
2021/07/03 14:47:07;;;;;;;9.30;3.63;;;23.20;90.70;;;;;;5899345;40;20054;-76
2021/07/03 14:51:11;;;;;;;7.50;3.53;;;23.30;90.80;;;;;;5895583;40;20050;-81
2021/07/03 14:55:13;;;;;;;7.72;3.72;;;23.40;90.70;;;;;;5894874;40;20062;-78
2021/07/03 14:59:14;;;;;;;5.95;3.25;;;23.40;90.60;;;;;;5898999;40;20184;-79
2021/07/03 15:03:16;;;;;;;6.30;3.53;;;23.30;90.70;;;;;;5888078;40;20481;-78
2021/07/03 15:07:18;;;;;;;6.68;2.80;;;23.20;90.60;;;;;;5886768;40;20038;-81
2021/07/03 15:11:22;;;;;;;8.45;3.92;;;23.20;90.50;;;;;;5895655;40;20050;-81
2021/07/03 15:15:24;;;;;;;9.02;4.03;;;23.20;90.50;;;;;;5885527;40;20057;-79
2021/07/03 15:19:26;;;;;;;7.90;3.92;;;23.00;90.60;;;;;;5894256;40;20057;-79
2021/07/03 15:23:28;;;;;;;4.80;3.13;;;23.30;90.90;;;;;;5887262;40;20441;-79
2021/07/03 15:27:30;;;;;;;6.18;3.33;;;23.00;90.60;;;;;;5896709;40;20516;-86
2021/07/03 15:31:32;;;;;;;9.82;3.63;;;23.00;90.80;;;;;;5890776;40;20042;-76
2021/07/03 15:35:34;;;;;;;6.95;3.70;;;22.90;90.70;;;;;;5888469;40;20046;-76
2021/07/03 15:39:36;;;;;;;6.32;3.40;;;22.90;90.50;;;;;;5890693;40;20090;-75
2021/07/03 15:43:38;;;;;;;7.18;3.47;;;22.90;90.40;;;;;;5889332;40;20286;-76
2021/07/03 15:47:40;;;;;;;6.22;3.10;;;22.90;90.30;;;;;;5893527;40;20424;-79
2021/07/03 15:51:42;;;;;;;4.60;2.95;;;22.90;90.50;;;;;;5883622;40;20086;-76
2021/07/03 15:55:45;;;;;;;12.88;4.15;;;22.90;90.90;;;;;;5891100;40;20053;-76
2021/07/03 15:59:47;;;;;;;6.72;3.60;;;22.90;90.40;;;;;;5885620;40;20199;-78
2021/07/03 16:03:49;;;;;;;7.45;3.28;;;23.00;90.20;;;;;;5893581;40;20070;-77
2021/07/03 16:07:51;;;;;;;8.95;3.40;;;23.00;90.00;;;;;;5889770;40;20057;-77
2021/07/03 16:11:53;;;;;;;5.95;3.55;;;23.00;90.00;;;;;;5884252;40;20058;-77
2021/07/03 16:15:55;;;;;;;6.60;3.30;;;23.00;90.20;;;;;;5883124;40;20666;-78
2021/07/03 16:19:56;;;;;;;5.65;3.20;;;23.00;90.10;;;;;;5895122;40;20037;-77
2021/07/03 16:23:58;;;;;;;6.00;3.30;;;22.80;90.00;;;;;;5893890;40;20452;-77
2021/07/03 16:28:00;;;;;;;6.88;3.00;;;22.90;89.70;;;;;;5887786;40;20070;-77
2021/07/03 16:32:03;;;;;;;5.07;3.42;;;22.90;89.90;;;;;;5894808;40;20112;-77
2021/07/03 16:36:05;;;;;;;5.32;3.00;;;22.70;90.30;;;;;;5889894;40;20082;-78
2021/07/03 16:40:08;;;;;;;7.55;3.22;;;22.70;90.00;;;;;;5883167;40;20050;-77
2021/07/03 16:44:09;;;;;;;6.90;3.67;;;22.70;89.70;;;;;;5883734;40;20054;-77
2021/07/03 16:48:12;;;;;;;6.25;3.30;;;22.70;90.10;;;;;;5882072;40;20049;-78
2021/07/03 16:52:14;;;;;;;5.82;3.55;;;22.70;90.20;;;;;;5892563;40;20382;-77
2021/07/03 16:56:16;;;;;;;5.45;3.50;;;22.60;90.30;;;;;;5887132;40;20097;-76
2021/07/03 17:00:18;;;;;;;7.43;4.03;;;22.60;90.30;;;;;;5890992;40;20046;-78
2021/07/03 17:04:20;;;;;;;9.32;5.10;;;22.50;90.70;;;;;;5882801;40;20492;-78
2021/07/03 17:08:22;;;;;;;12.88;5.88;;;22.50;91.60;;;;;;5884957;40;20038;-77
2021/07/03 17:12:24;;;;;;;10.70;5.72;;;21.90;92.00;;;;;;5890163;40;20041;-79
2021/07/03 17:16:26;;;;;;;;;;;22.30;92.60;;;;;;5892636;40;20057;-79
2021/07/03 17:20:28;;;;;;;;;;;22.40;93.60;;;;;;5882639;40;19941;-79
2021/07/03 17:24:30;;;;;;;12.90;5.93;;;21.50;94.10;;;;;;5891569;40;19952;-78
2021/07/03 17:28:50;;;;;;;8.85;5.85;;;21.40;93.60;;;;;;5877439;40;21244;-76
2021/07/03 17:32:51;;;;;;;12.00;5.65;;;21.20;93.90;;;;;;5889698;40;20293;-79
2021/07/03 17:36:53;;;;;;;11.48;5.30;;;21.20;93.90;;;;;;5886798;40;20068;-77
2021/07/03 17:40:55;;;;;;;;;;;21.20;93.90;;;;;;5891120;40;20061;-77
2021/07/03 17:44:57;;;;;;;10.60;5.95;;;21.00;93.90;;;;;;5891937;40;19941;-76
2021/07/03 17:48:59;;;;;;;10.65;5.55;;;21.30;94.10;;;;;;5890585;40;20082;-77
2021/07/03 17:53:01;;;;;;;11.05;6.07;;;21.00;94.10;;;;;;5896274;40;20057;-76
2021/07/03 17:57:03;;;;;;;11.00;6.63;;;21.00;94.00;;;;;;5894322;40;20113;-78
2021/07/03 18:01:05;;;;;;;14.88;5.82;;;21.00;94.30;;;;;;5885897;40;20394;-78
2021/07/03 18:05:08;;;;;;;9.63;6.18;;;21.00;94.20;;;;;;5891313;40;20057;-77
2021/07/03 18:09:10;;;;;;;9.57;5.78;;;21.00;94.10;;;;;;5880535;40;20110;-76
2021/07/03 18:13:12;;;;;;;;;;;20.80;94.40;;;;;;5887438;40;20082;-76
2021/07/03 18:17:14;;;;;;;9.82;5.82;;;20.70;95.10;;;;;;5893287;40;19939;-77
2021/07/03 18:21:16;;;;;;;10.05;5.57;;;20.70;94.30;;;;;;5892740;40;20333;-76
2021/07/03 18:25:17;;;;;;;;;;;20.70;94.30;;;;;;5883931;40;20492;-76
2021/07/03 18:29:19;;;;;;;10.02;5.60;;;21.20;95.00;;;;;;5895117;40;19948;-76
2021/07/03 18:33:21;;;;;;;7.85;5.00;;;20.80;94.30;;;;;;5894622;40;20038;-76
2021/07/03 18:37:23;;;;;;;;;;;20.80;94.30;;;;;;5884749;40;20443;-76
2021/07/03 18:41:25;;;;;;;8.63;5.18;;;20.40;94.20;;;;;;5886156;40;20225;-76
2021/07/03 18:45:27;;;;;;;;;;;20.40;94.40;;;;;;5893288;40;20142;-71
2021/07/03 18:49:29;;;;;;;;;;;20.30;94.50;;;;;;5871879;40;19952;-71
2021/07/03 18:53:33;;;;;;;10.48;6.03;;;20.20;95.60;;;;;;5883796;40;20415;-71
2021/07/03 18:57:35;;;;;;;10.07;6.05;;;20.10;94.70;;;;;;5881082;40;20168;-71
2021/07/03 19:01:37;;;;;;;;;;;20.00;94.80;;;;;;5879397;40;20043;-70
2021/07/03 19:05:40;;;;;;;8.38;5.82;;;19.90;94.30;;;;;;5882607;40;19958;-70
2021/07/03 19:09:41;;;;;;;10.93;6.22;;;19.90;94.80;;;;;;5876201;40;20069;-70
2021/07/03 19:13:44;;;;;;;10.93;6.30;;;20.00;95.10;;;;;;5876199;40;20476;-70
2021/07/03 19:17:49;;;;;;;10.07;6.22;;;19.90;95.10;;;;;;5876114;40;20177;-70
2021/07/03 19:21:50;;;;;;;11.60;6.45;;;19.90;95.10;;;;;;5880871;40;20073;-70
2021/07/03 19:25:53;;;;;;;11.70;7.03;;;19.90;95.20;;;;;;5881060;40;20426;-70
2021/07/03 19:29:54;;;;;;;10.98;7.35;;;19.90;95.30;;;;;;5879716;40;20046;-70
2021/07/03 19:33:56;;;;;;;;;;;19.80;95.40;;;;;;5878600;40;20105;-70
2021/07/03 19:37:58;;;;;;;10.50;6.60;;;19.80;94.70;;;;;;5881153;40;19992;-70
2021/07/03 19:42:00;;;;;;;;;;;19.80;95.30;;;;;;5874865;40;20038;-71
2021/07/03 19:46:02;;;;;;;14.95;6.85;;;19.70;94.60;;;;;;5878828;40;20028;-70
2021/07/03 19:50:06;;;;;;;11.57;6.93;;;19.70;95.10;;;;;;5880320;40;20058;-70
2021/07/03 19:54:09;;;;;;;8.00;5.70;;;19.80;95.20;;;;;;5870952;40;20054;-70
2021/07/03 19:58:11;;;;;;;9.75;6.20;;;19.80;95.10;;;;;;5879839;40;20140;-70
2021/07/03 20:02:13;;;;;;;12.20;5.47;;;19.80;95.10;;;;;;5873056;40;20093;-70
2021/07/03 20:06:16;;;;;;;11.10;6.00;;;19.80;95.10;;;;;;5881103;40;20129;-70
2021/07/03 20:10:19;;;;;;;11.68;5.72;;;19.70;95.20;;;;;;5879589;40;20543;-70
2021/07/03 20:14:26;;;;;;;9.90;5.97;;;19.70;95.20;;;;;;5881007;40;20076;-71
2021/07/03 20:18:28;;;;;;;11.75;5.40;;;19.70;95.30;;;;;;5882739;40;20078;-70
2021/07/03 20:22:30;;;;;;;;;;;19.60;95.20;;;;;;5882205;40;20104;-71
2021/07/03 20:26:32;;;;;;;9.30;5.65;;;19.50;94.90;;;;;;5880106;40;19949;-70
2021/07/03 20:30:34;;;;;;;10.13;5.68;;;19.40;95.20;;;;;;5871768;40;20050;-71
2021/07/03 20:34:37;;;;;;;7.97;5.32;;;19.40;95.40;;;;;;5873973;40;20138;-70
2021/07/03 20:38:42;;;;;;;10.93;5.70;;;19.40;95.30;;;;;;5870551;40;20076;-71
2021/07/03 20:42:44;;;;;;;9.23;5.50;;;19.20;95.50;;;;;;5878645;40;20066;-71
2021/07/03 20:46:47;;;;;;;8.38;6.03;;;19.30;95.50;;;;;;5870844;40;20424;-70
2021/07/03 20:50:49;;;;;;;9.13;5.95;;;19.30;95.50;;;;;;5877534;40;20045;-71
2021/07/03 20:54:51;;;;;;;8.52;5.38;;;19.20;95.50;;;;;;5883870;40;20326;-70
2021/07/03 20:58:53;;;;;;;8.60;5.85;;;19.30;95.60;;;;;;5879747;40;20062;-70
2021/07/03 21:02:54;;;;;;;;;;;19.10;95.40;;;;;;5880406;40;20091;-70
2021/07/03 21:06:57;;;;;;;9.82;5.50;;;19.10;94.70;;;;;;5880186;40;19948;-70
2021/07/03 21:10:58;;;;;;;;;;;19.00;95.40;;;;;;5883968;40;20062;-70
2021/07/03 21:15:00;;;;;;;7.90;5.38;;;19.00;94.70;;;;;;5875751;40;20406;-70
2021/07/03 21:19:02;;;;;;;;;;;18.90;95.40;;;;;;5878559;40;20052;-70
2021/07/03 21:23:04;;;;;;;8.57;5.53;;;18.90;94.70;;;;;;5872706;40;20029;-70
2021/07/03 21:27:07;;;;;;;;;;;18.90;95.40;;;;;;5882399;40;20101;-70
2021/07/03 21:31:09;;;;;;;10.15;5.45;;;18.80;94.60;;;;;;5878394;40;19941;-70
2021/07/03 21:35:13;;;;;;;9.60;6.05;;;18.80;95.50;;;;;;5876390;40;20054;-70
2021/07/03 21:39:15;;;;;;;7.72;5.20;;;18.80;95.60;;;;;;5878912;40;20070;-70